createdAt,value
2023-03-27T00:02:08.377Z,72.15
2023-03-27T00:07:10.578Z,72.17
2023-03-27T00:12:12.702Z,72.14
2023-03-27T00:17:14.778Z,72.11
2023-03-27T00:22:17.193Z,72.34
2023-03-27T00:27:20.045Z,72.16
2023-03-27T00:32:21.971Z,72.41
2023-03-27T00:37:23.887Z,72.27
2023-03-27T00:42:26.513Z,72.31
2023-03-27T00:47:35.720Z,72.51
2023-03-27T00:52:44.683Z,72.56
2023-03-27T00:57:51.710Z,72.45
2023-03-27T01:02:55.499Z,72.52
2023-03-27T01:08:03.850Z,72.50
2023-03-27T01:13:37.369Z,72.36
2023-03-27T01:19:26.352Z,72.21
2023-03-27T01:25:07.899Z,72.36
2023-03-27T01:30:39.293Z,72.36
2023-03-27T01:35:52.317Z,72.00
2023-03-27T01:41:06.310Z,71.68
2023-03-27T01:46:14.225Z,71.03
2023-03-27T01:51:20.027Z,70.74
2023-03-27T01:56:27.608Z,70.69
2023-03-27T02:01:44.545Z,70.74
2023-03-27T02:06:59.204Z,70.60
2023-03-27T02:12:12.819Z,70.46
2023-03-27T02:17:19.300Z,70.15
2023-03-27T02:22:37.742Z,70.26
2023-03-27T02:27:48.106Z,69.91
2023-03-27T02:33:06.571Z,70.27
2023-03-27T02:38:19.965Z,69.99
2023-03-27T02:43:52.579Z,70.02
2023-03-27T02:49:10.977Z,70.02
2023-03-27T02:54:22.977Z,70.04
2023-03-27T02:59:31.115Z,69.82
2023-03-27T03:04:46.601Z,69.92
2023-03-27T03:10:09.860Z,69.75
2023-03-27T03:15:12.701Z,69.83
2023-03-27T03:20:14.837Z,69.72
2023-03-27T03:25:17.953Z,69.62
2023-03-27T03:30:19.831Z,69.67
2023-03-27T03:35:31.072Z,69.84
2023-03-27T03:40:38.624Z,69.48
2023-03-27T03:45:40.474Z,69.72
2023-03-27T03:50:43.814Z,69.74
2023-03-27T03:55:50.042Z,69.51
2023-03-27T04:00:54.723Z,69.28
2023-03-27T04:06:07.970Z,69.38
2023-03-27T04:11:10.310Z,69.85
2023-03-27T04:16:30.665Z,69.75
2023-03-27T04:21:38.866Z,69.84
2023-03-27T04:26:43.510Z,69.85
2023-03-27T04:32:19.368Z,69.98
2023-03-27T04:37:42.117Z,69.88
2023-03-27T04:42:57.738Z,69.90
2023-03-27T04:48:00.391Z,69.99
2023-03-27T04:53:03.251Z,69.77
2023-03-27T04:58:15.696Z,70.00
2023-03-27T05:03:19.642Z,69.96
2023-03-27T05:08:47.945Z,69.91
2023-03-27T05:13:59.511Z,69.87
2023-03-27T05:19:03.838Z,70.14
2023-03-27T05:24:15.627Z,70.41
2023-03-27T05:29:19.330Z,70.34
2023-03-27T05:34:30.284Z,70.21
2023-03-27T05:39:37.039Z,70.57
2023-03-27T05:44:43.863Z,70.37
2023-03-27T05:49:46.361Z,70.43
2023-03-27T05:54:48.322Z,70.43
2023-03-27T05:59:50.965Z,70.50
2023-03-27T06:04:56.337Z,70.44
2023-03-27T06:10:13.714Z,70.57
2023-03-27T06:15:19.147Z,70.55
2023-03-27T06:20:31.063Z,70.92
2023-03-27T06:25:36.659Z,70.83
2023-03-27T06:30:39.488Z,70.99
2023-03-27T06:36:02.133Z,71.03
2023-03-27T06:41:06.013Z,71.00
2023-03-27T06:46:35.081Z,71.09
2023-03-27T06:52:03.963Z,70.99
2023-03-27T06:57:06.577Z,70.90
2023-03-27T07:02:25.531Z,70.80
2023-03-27T07:08:05.435Z,70.85
2023-03-27T07:13:21.045Z,70.80
2023-03-27T07:18:23.511Z,70.80
2023-03-27T07:23:30.295Z,70.64
2023-03-27T07:28:38.770Z,70.55
2023-03-27T07:33:45.433Z,70.30
2023-03-27T07:38:48.629Z,69.84
2023-03-27T07:43:57.948Z,69.47
2023-03-27T07:49:01.171Z,69.46
2023-03-27T07:54:04.513Z,69.17
2023-03-27T07:59:13.741Z,68.65
2023-03-27T08:04:17.737Z,68.78
2023-03-27T08:09:35.282Z,68.70
2023-03-27T08:14:37.187Z,68.63
2023-03-27T08:19:48.332Z,68.21
2023-03-27T08:24:51.817Z,68.08
2023-03-27T08:30:00.446Z,67.96
2023-03-27T08:35:03.879Z,67.45
2023-03-27T08:40:13.510Z,67.24
2023-03-27T08:45:29.516Z,66.95
2023-03-27T08:50:46.562Z,66.53
2023-03-27T08:55:51.400Z,66.49
2023-03-27T09:01:24.419Z,66.20
2023-03-27T09:06:38.425Z,65.77
2023-03-27T09:11:53.747Z,65.63
2023-03-27T09:17:14.144Z,65.57
2023-03-27T09:22:24.633Z,65.37
2023-03-27T09:27:52.411Z,64.98
2023-03-27T09:33:10.402Z,65.06
2023-03-27T09:38:24.180Z,64.98
2023-03-27T09:43:39.710Z,64.75
2023-03-27T09:49:05.518Z,64.03
2023-03-27T09:54:09.810Z,64.16
2023-03-27T09:59:24.715Z,63.42
2023-03-27T10:04:30.269Z,63.15
2023-03-27T10:09:37.122Z,64.14
2023-03-27T10:14:49.917Z,64.34
2023-03-27T10:20:09.224Z,64.24
2023-03-27T10:25:20.212Z,63.65
2023-03-27T10:30:36.173Z,63.03
2023-03-27T10:35:57.846Z,61.06
2023-03-27T10:41:17.660Z,59.92
2023-03-27T10:46:37.889Z,60.69
2023-03-27T10:51:57.930Z,60.10
2023-03-27T10:57:15.459Z,59.46
2023-03-27T11:02:20.171Z,60.01
2023-03-27T11:07:46.728Z,59.77
2023-03-27T11:12:59.952Z,60.02
2023-03-27T11:18:10.530Z,60.20
2023-03-27T11:23:38.609Z,59.93
2023-03-27T11:29:30.384Z,59.92
2023-03-27T11:34:45.186Z,59.95
2023-03-27T11:40:21.248Z,59.92
2023-03-27T11:45:53.204Z,59.85
2023-03-27T11:51:05.327Z,59.49
2023-03-27T11:56:35.475Z,59.34
2023-03-27T12:02:29.012Z,59.06
2023-03-27T12:07:47.966Z,59.31
2023-03-27T12:12:59.400Z,58.85
2023-03-27T12:18:13.492Z,58.44
2023-03-27T12:23:31.152Z,57.46
2023-03-27T12:29:23.490Z,57.43
2023-03-27T12:34:57.045Z,57.86
2023-03-27T12:40:25.125Z,58.29
2023-03-27T12:45:28.093Z,57.67
2023-03-27T12:50:58.700Z,56.17
2023-03-27T12:56:19.517Z,56.03
2023-03-27T13:01:51.638Z,55.85
2023-03-27T13:07:40.351Z,55.91
2023-03-27T13:13:17.223Z,55.05
2023-03-27T13:18:36.753Z,55.03
2023-03-27T13:23:46.329Z,55.35
2023-03-27T13:28:57.064Z,55.28
2023-03-27T13:34:28.664Z,56.05
2023-03-27T13:39:48.542Z,56.61
2023-03-27T13:45:04.144Z,57.22
2023-03-27T13:50:50.749Z,57.54
2023-03-27T13:56:11.429Z,57.13
2023-03-27T14:01:52.283Z,57.00
2023-03-27T14:07:04.242Z,55.62
2023-03-27T14:12:58.061Z,55.92
2023-03-27T14:18:41.159Z,56.75
2023-03-27T14:23:58.903Z,57.80
2023-03-27T14:29:14.631Z,58.57
2023-03-27T14:34:24.961Z,59.18
2023-03-27T14:39:42.652Z,59.59
2023-03-27T14:44:50.928Z,60.10
2023-03-27T14:49:59.564Z,60.54
2023-03-27T14:55:19.550Z,61.19
2023-03-27T15:00:32.280Z,61.44
2023-03-27T15:05:34.871Z,61.84
2023-03-27T15:10:38.414Z,62.42
2023-03-27T15:15:47.189Z,62.68
2023-03-27T15:20:50.808Z,63.28
2023-03-27T15:25:58.845Z,63.58
2023-03-27T15:31:03.479Z,63.79
2023-03-27T15:36:11.146Z,63.69
2023-03-27T15:41:15.802Z,63.34
2023-03-27T15:46:19.882Z,63.34
2023-03-27T15:51:22.898Z,63.32
2023-03-27T15:56:27.936Z,62.98
2023-03-27T16:01:44.137Z,62.71
2023-03-27T16:06:51.266Z,62.86
2023-03-27T16:11:54.950Z,62.82
2023-03-27T16:17:19.088Z,62.78
2023-03-27T16:22:27.350Z,62.96
2023-03-27T16:27:42.304Z,63.09
2023-03-27T16:32:44.452Z,63.42
2023-03-27T16:37:46.429Z,63.35
2023-03-27T16:42:48.299Z,63.50
2023-03-27T16:47:53.106Z,63.44
2023-03-27T16:52:55.437Z,63.36
2023-03-27T16:57:57.364Z,63.57
2023-03-27T17:03:01.393Z,63.80
2023-03-27T17:08:05.310Z,63.67
2023-03-27T17:13:08.621Z,63.62
2023-03-27T17:18:10.455Z,63.87
2023-03-27T17:23:12.738Z,64.03
2023-03-27T17:28:14.651Z,64.56
2023-03-27T17:33:17.580Z,64.77
2023-03-27T17:38:22.620Z,65.18
2023-03-27T17:43:24.466Z,65.46
2023-03-27T17:48:26.564Z,65.06
2023-03-27T17:53:29.456Z,65.24
2023-03-27T17:58:34.176Z,65.45
2023-03-27T18:03:36.933Z,65.50
2023-03-27T18:08:39.097Z,65.75
2023-03-27T18:13:41.550Z,65.93
2023-03-27T18:18:43.290Z,66.00
2023-03-27T18:23:46.545Z,66.11
2023-03-27T18:28:48.898Z,66.22
2023-03-27T18:33:51.196Z,66.14
2023-03-27T18:38:52.980Z,66.64
2023-03-27T18:43:54.740Z,66.56
2023-03-27T18:48:58.723Z,66.76
2023-03-27T18:54:00.871Z,66.55
2023-03-27T18:59:02.699Z,66.60
2023-03-27T19:04:05.044Z,66.50
2023-03-27T19:09:07.587Z,66.65
2023-03-27T19:14:10.079Z,66.63
2023-03-27T19:19:32.166Z,66.49
2023-03-27T19:24:58.563Z,66.80
2023-03-27T19:30:00.500Z,66.51
2023-03-27T19:35:03.059Z,66.34
2023-03-27T19:40:05.539Z,66.37
2023-03-27T19:45:08.804Z,66.61
2023-03-27T19:50:11.812Z,66.40
2023-03-27T19:55:26.576Z,66.61
2023-03-27T20:00:30.155Z,66.57
2023-03-27T20:05:33.225Z,66.81
2023-03-27T20:10:35.731Z,66.72
2023-03-27T20:15:39.690Z,66.71
2023-03-27T20:20:41.519Z,66.75
2023-03-27T20:25:44.817Z,66.80
2023-03-27T20:30:46.699Z,66.74
2023-03-27T20:35:48.536Z,66.88
2023-03-27T20:40:54.388Z,66.84
2023-03-27T20:46:02.043Z,66.73
2023-03-27T20:51:06.145Z,66.99
2023-03-27T20:56:09.327Z,66.89
2023-03-27T21:01:11.790Z,66.79
2023-03-27T21:06:16.764Z,66.87
2023-03-27T21:11:18.598Z,67.01
2023-03-27T21:16:20.407Z,67.06
2023-03-27T21:21:22.223Z,66.99
2023-03-27T21:26:24.053Z,67.07
2023-03-27T21:31:26.027Z,67.27
2023-03-27T21:36:29.741Z,67.24
2023-03-27T21:41:32.079Z,67.49
2023-03-27T21:46:34.097Z,67.46
2023-03-27T21:51:35.953Z,67.40
2023-03-27T21:56:37.807Z,67.49
2023-03-27T22:01:39.605Z,67.53
2023-03-27T22:06:41.544Z,67.47
2023-03-27T22:11:43.972Z,67.44
2023-03-27T22:16:45.808Z,67.77
2023-03-27T22:21:47.727Z,67.61
2023-03-27T22:26:49.613Z,67.36
2023-03-27T22:31:51.944Z,67.66
2023-03-27T22:36:53.922Z,67.73
2023-03-27T22:41:55.860Z,67.55
2023-03-27T22:46:59.844Z,67.81
2023-03-27T22:52:02.715Z,67.50
2023-03-27T22:57:04.611Z,67.72
2023-03-27T23:02:06.513Z,67.76
2023-03-27T23:07:08.438Z,67.78
2023-03-27T23:12:10.696Z,67.81
2023-03-27T23:17:12.655Z,67.87
2023-03-27T23:22:14.616Z,67.83
2023-03-27T23:27:16.486Z,67.96
2023-03-27T23:32:18.473Z,67.94
2023-03-27T23:37:21.021Z,68.01
2023-03-27T23:42:22.865Z,67.95
2023-03-27T23:47:24.705Z,68.03
2023-03-27T23:52:26.557Z,67.96
2023-03-27T23:57:28.485Z,67.90
